sensor_id;sensor_type;location;lat;lon;timestamp;temperature;humidity
12119;DHT22;6123;48.864;9.200;2022-10-26T00:03:31;12.40;99.90
12119;DHT22;6123;48.864;9.200;2022-10-26T00:06:09;12.50;99.90
12119;DHT22;6123;48.864;9.200;2022-10-26T00:08:36;12.60;99.90
12119;DHT22;6123;48.864;9.200;2022-10-26T00:11:02;12.50;99.90
12119;DHT22;6123;48.864;9.200;2022-10-26T00:13:28;12.60;99.90
12119;DHT22;6123;48.864;9.200;2022-10-26T00:15:56;12.60;99.90
12119;DHT22;6123;48.864;9.200;2022-10-26T00:18:22;12.60;99.90
12119;DHT22;6123;48.864;9.200;2022-10-26T00:20:48;12.80;99.90
12119;DHT22;6123;48.864;9.200;2022-10-26T00:23:14;12.90;99.90
12119;DHT22;6123;48.864;9.200;2022-10-26T00:25:39;12.90;99.90
12119;DHT22;6123;48.864;9.200;2022-10-26T00:28:05;12.90;99.90
12119;DHT22;6123;48.864;9.200;2022-10-26T00:30:31;12.90;99.90
12119;DHT22;6123;48.864;9.200;2022-10-26T00:32:56;12.80;99.90
12119;DHT22;6123;48.864;9.200;2022-10-26T00:35:24;12.80;99.90
12119;DHT22;6123;48.864;9.200;2022-10-26T00:37:54;12.80;99.90
12119;DHT22;6123;48.864;9.200;2022-10-26T00:40:20;12.80;99.90
12119;DHT22;6123;48.864;9.200;2022-10-26T00:42:46;12.80;99.90
12119;DHT22;6123;48.864;9.200;2022-10-26T00:45:27;12.80;99.90
12119;DHT22;6123;48.864;9.200;2022-10-26T00:47:57;12.80;99.90
12119;DHT22;6123;48.864;9.200;2022-10-26T00:50:33;12.90;99.90
12119;DHT22;6123;48.864;9.200;2022-10-26T00:53:00;13.00;99.90
12119;DHT22;6123;48.864;9.200;2022-10-26T00:55:33;12.90;99.90
12119;DHT22;6123;48.864;9.200;2022-10-26T00:58:02;12.80;99.90
12119;DHT22;6123;48.864;9.200;2022-10-26T01:00:30;12.90;99.90
12119;DHT22;6123;48.864;9.200;2022-10-26T01:03:00;12.90;99.90
12119;DHT22;6123;48.864;9.200;2022-10-26T01:05:32;12.80;99.90
12119;DHT22;6123;48.864;9.200;2022-10-26T01:07:59;12.90;99.90
12119;DHT22;6123;48.864;9.200;2022-10-26T01:10:26;12.90;99.90
12119;DHT22;6123;48.864;9.200;2022-10-26T01:12:54;12.90;99.90
12119;DHT22;6123;48.864;9.200;2022-10-26T01:15:31;12.90;99.90
12119;DHT22;6123;48.864;9.200;2022-10-26T01:18:12;12.90;99.90
12119;DHT22;6123;48.864;9.200;2022-10-26T01:23:58;12.90;99.90
12119;DHT22;6123;48.864;9.200;2022-10-26T01:38:41;12.80;99.90
12119;DHT22;6123;48.864;9.200;2022-10-26T01:43:47;12.60;99.90
12119;DHT22;6123;48.864;9.200;2022-10-26T01:46:15;12.70;99.90
12119;DHT22;6123;48.864;9.200;2022-10-26T01:48:43;12.70;99.90
12119;DHT22;6123;48.864;9.200;2022-10-26T01:51:11;12.70;99.90
12119;DHT22;6123;48.864;9.200;2022-10-26T01:53:44;12.70;99.90
12119;DHT22;6123;48.864;9.200;2022-10-26T01:56:17;12.80;99.90
12119;DHT22;6123;48.864;9.200;2022-10-26T01:58:57;12.80;99.90
12119;DHT22;6123;48.864;9.200;2022-10-26T02:15:22;12.70;99.90
12119;DHT22;6123;48.864;9.200;2022-10-26T02:18:03;12.70;99.90
12119;DHT22;6123;48.864;9.200;2022-10-26T02:20:37;12.60;99.90
12119;DHT22;6123;48.864;9.200;2022-10-26T02:23:06;12.60;99.90
12119;DHT22;6123;48.864;9.200;2022-10-26T02:25:34;12.60;99.90
12119;DHT22;6123;48.864;9.200;2022-10-26T02:28:05;12.70;99.90
12119;DHT22;6123;48.864;9.200;2022-10-26T02:30:32;12.70;99.90
12119;DHT22;6123;48.864;9.200;2022-10-26T02:32:59;12.70;99.90
12119;DHT22;6123;48.864;9.200;2022-10-26T02:35:29;12.60;99.90
12119;DHT22;6123;48.864;9.200;2022-10-26T02:37:59;12.60;99.90
12119;DHT22;6123;48.864;9.200;2022-10-26T02:40:28;12.60;99.90
12119;DHT22;6123;48.864;9.200;2022-10-26T02:42:56;12.60;99.90
12119;DHT22;6123;48.864;9.200;2022-10-26T02:45:27;12.60;99.90
12119;DHT22;6123;48.864;9.200;2022-10-26T02:47:55;12.60;99.90
12119;DHT22;6123;48.864;9.200;2022-10-26T02:50:28;12.60;99.90
12119;DHT22;6123;48.864;9.200;2022-10-26T02:55:33;12.80;99.90
12119;DHT22;6123;48.864;9.200;2022-10-26T02:58:08;12.80;99.90
12119;DHT22;6123;48.864;9.200;2022-10-26T03:00:37;12.80;99.90
12119;DHT22;6123;48.864;9.200;2022-10-26T03:03:03;12.80;99.90
12119;DHT22;6123;48.864;9.200;2022-10-26T03:05:30;12.80;99.90
12119;DHT22;6123;48.864;9.200;2022-10-26T03:08:01;12.70;99.90
12119;DHT22;6123;48.864;9.200;2022-10-26T03:10:27;12.70;99.90
12119;DHT22;6123;48.864;9.200;2022-10-26T03:12:53;12.70;99.90
12119;DHT22;6123;48.864;9.200;2022-10-26T03:15:20;12.70;99.90
12119;DHT22;6123;48.864;9.200;2022-10-26T03:17:46;12.80;99.90
12119;DHT22;6123;48.864;9.200;2022-10-26T03:20:11;12.80;99.90
12119;DHT22;6123;48.864;9.200;2022-10-26T03:22:37;12.80;99.90
12119;DHT22;6123;48.864;9.200;2022-10-26T03:25:03;12.70;99.90
12119;DHT22;6123;48.864;9.200;2022-10-26T03:27:29;12.60;99.90
12119;DHT22;6123;48.864;9.200;2022-10-26T03:29:54;12.60;99.90
12119;DHT22;6123;48.864;9.200;2022-10-26T03:32:20;12.50;99.90
12119;DHT22;6123;48.864;9.200;2022-10-26T03:34:48;12.50;99.90
12119;DHT22;6123;48.864;9.200;2022-10-26T03:37:13;12.50;99.90
12119;DHT22;6123;48.864;9.200;2022-10-26T03:39:41;12.50;99.90
12119;DHT22;6123;48.864;9.200;2022-10-26T03:42:07;12.50;99.90
12119;DHT22;6123;48.864;9.200;2022-10-26T03:44:34;12.50;99.90
12119;DHT22;6123;48.864;9.200;2022-10-26T03:47:00;12.50;99.90
12119;DHT22;6123;48.864;9.200;2022-10-26T03:49:26;12.50;99.90
12119;DHT22;6123;48.864;9.200;2022-10-26T03:51:51;12.60;99.90
12119;DHT22;6123;48.864;9.200;2022-10-26T03:54:19;12.40;99.90
12119;DHT22;6123;48.864;9.200;2022-10-26T03:56:47;12.50;99.90
12119;DHT22;6123;48.864;9.200;2022-10-26T03:59:13;12.50;99.90
12119;DHT22;6123;48.864;9.200;2022-10-26T04:01:39;12.50;99.90
12119;DHT22;6123;48.864;9.200;2022-10-26T04:04:04;12.50;99.90
12119;DHT22;6123;48.864;9.200;2022-10-26T04:06:30;12.50;99.90
12119;DHT22;6123;48.864;9.200;2022-10-26T04:08:56;12.60;99.90
12119;DHT22;6123;48.864;9.200;2022-10-26T04:11:28;12.60;99.90
12119;DHT22;6123;48.864;9.200;2022-10-26T04:13:56;12.80;99.90
12119;DHT22;6123;48.864;9.200;2022-10-26T04:16:25;12.60;99.90
12119;DHT22;6123;48.864;9.200;2022-10-26T04:18:51;12.60;99.90
12119;DHT22;6123;48.864;9.200;2022-10-26T04:21:16;12.60;99.90
12119;DHT22;6123;48.864;9.200;2022-10-26T04:23:42;12.50;99.90
12119;DHT22;6123;48.864;9.200;2022-10-26T04:26:10;12.50;99.90
12119;DHT22;6123;48.864;9.200;2022-10-26T04:28:35;12.60;99.90
12119;DHT22;6123;48.864;9.200;2022-10-26T04:31:01;12.50;99.90
12119;DHT22;6123;48.864;9.200;2022-10-26T04:33:29;12.50;99.90
12119;DHT22;6123;48.864;9.200;2022-10-26T04:36:01;12.50;99.90
12119;DHT22;6123;48.864;9.200;2022-10-26T04:38:26;12.50;99.90
12119;DHT22;6123;48.864;9.200;2022-10-26T04:40:54;12.50;99.90
12119;DHT22;6123;48.864;9.200;2022-10-26T04:43:20;12.50;99.90
12119;DHT22;6123;48.864;9.200;2022-10-26T04:45:48;12.60;99.90
12119;DHT22;6123;48.864;9.200;2022-10-26T04:48:13;12.50;99.90
12119;DHT22;6123;48.864;9.200;2022-10-26T04:50:39;12.60;99.90
12119;DHT22;6123;48.864;9.200;2022-10-26T04:53:06;12.60;99.90
12119;DHT22;6123;48.864;9.200;2022-10-26T04:55:32;12.60;99.90
12119;DHT22;6123;48.864;9.200;2022-10-26T04:57:57;12.80;99.90
12119;DHT22;6123;48.864;9.200;2022-10-26T05:00:23;12.70;99.90
12119;DHT22;6123;48.864;9.200;2022-10-26T05:02:49;12.70;99.90
12119;DHT22;6123;48.864;9.200;2022-10-26T05:05:14;12.80;99.90
12119;DHT22;6123;48.864;9.200;2022-10-26T05:07:40;12.70;99.90
12119;DHT22;6123;48.864;9.200;2022-10-26T05:10:08;12.70;99.90
12119;DHT22;6123;48.864;9.200;2022-10-26T05:12:34;12.70;99.90
12119;DHT22;6123;48.864;9.200;2022-10-26T05:14:59;12.60;99.90
12119;DHT22;6123;48.864;9.200;2022-10-26T05:17:25;12.70;99.90
12119;DHT22;6123;48.864;9.200;2022-10-26T05:19:51;12.80;99.90
12119;DHT22;6123;48.864;9.200;2022-10-26T05:22:21;12.80;99.90
12119;DHT22;6123;48.864;9.200;2022-10-26T05:24:46;12.90;99.90
12119;DHT22;6123;48.864;9.200;2022-10-26T05:27:12;12.90;99.90
12119;DHT22;6123;48.864;9.200;2022-10-26T05:29:38;13.00;99.90
12119;DHT22;6123;48.864;9.200;2022-10-26T05:32:04;13.10;99.90
12119;DHT22;6123;48.864;9.200;2022-10-26T05:34:29;13.10;99.90
12119;DHT22;6123;48.864;9.200;2022-10-26T05:36:55;13.10;99.90
12119;DHT22;6123;48.864;9.200;2022-10-26T05:39:23;13.10;99.90
12119;DHT22;6123;48.864;9.200;2022-10-26T05:41:49;13.10;99.90
12119;DHT22;6123;48.864;9.200;2022-10-26T05:44:17;13.10;99.90
12119;DHT22;6123;48.864;9.200;2022-10-26T05:46:42;13.10;99.90
12119;DHT22;6123;48.864;9.200;2022-10-26T05:49:08;13.20;99.90
12119;DHT22;6123;48.864;9.200;2022-10-26T05:51:36;13.20;99.90
12119;DHT22;6123;48.864;9.200;2022-10-26T05:54:04;13.20;99.90
12119;DHT22;6123;48.864;9.200;2022-10-26T05:56:36;13.30;99.90
12119;DHT22;6123;48.864;9.200;2022-10-26T05:59:02;13.20;99.90
12119;DHT22;6123;48.864;9.200;2022-10-26T06:01:34;13.20;99.90
12119;DHT22;6123;48.864;9.200;2022-10-26T06:04:31;13.30;99.90
12119;DHT22;6123;48.864;9.200;2022-10-26T06:07:00;13.30;99.90
12119;DHT22;6123;48.864;9.200;2022-10-26T06:09:27;13.30;99.90
12119;DHT22;6123;48.864;9.200;2022-10-26T06:11:53;13.30;99.90
12119;DHT22;6123;48.864;9.200;2022-10-26T06:14:18;13.40;99.90
12119;DHT22;6123;48.864;9.200;2022-10-26T06:30:25;13.60;99.90
12119;DHT22;6123;48.864;9.200;2022-10-26T06:32:50;13.70;99.90
12119;DHT22;6123;48.864;9.200;2022-10-26T06:35:35;13.80;99.90
12119;DHT22;6123;48.864;9.200;2022-10-26T06:38:06;13.80;99.90
12119;DHT22;6123;48.864;9.200;2022-10-26T06:40:35;13.70;99.90
12119;DHT22;6123;48.864;9.200;2022-10-26T06:43:10;13.60;99.90
12119;DHT22;6123;48.864;9.200;2022-10-26T06:45:43;13.60;99.90
12119;DHT22;6123;48.864;9.200;2022-10-26T06:48:15;13.50;99.90
12119;DHT22;6123;48.864;9.200;2022-10-26T06:51:02;15.10;99.90
12119;DHT22;6123;48.864;9.200;2022-10-26T06:56:15;13.50;99.90
12119;DHT22;6123;48.864;9.200;2022-10-26T06:58:46;13.60;99.90
12119;DHT22;6123;48.864;9.200;2022-10-26T07:01:13;13.70;99.90
12119;DHT22;6123;48.864;9.200;2022-10-26T07:03:38;13.70;99.90
12119;DHT22;6123;48.864;9.200;2022-10-26T07:06:04;13.80;99.90
12119;DHT22;6123;48.864;9.200;2022-10-26T07:08:31;13.90;99.90
12119;DHT22;6123;48.864;9.200;2022-10-26T07:10:56;14.00;99.90
12119;DHT22;6123;48.864;9.200;2022-10-26T07:13:22;14.00;99.90
12119;DHT22;6123;48.864;9.200;2022-10-26T07:15:47;14.00;99.90
12119;DHT22;6123;48.864;9.200;2022-10-26T07:18:13;14.00;99.90
12119;DHT22;6123;48.864;9.200;2022-10-26T07:20:40;13.90;99.90
12119;DHT22;6123;48.864;9.200;2022-10-26T07:23:06;13.80;99.90
12119;DHT22;6123;48.864;9.200;2022-10-26T07:25:33;13.90;99.90
12119;DHT22;6123;48.864;9.200;2022-10-26T07:28:00;14.00;99.90
12119;DHT22;6123;48.864;9.200;2022-10-26T07:30:29;14.50;99.90
12119;DHT22;6123;48.864;9.200;2022-10-26T07:33:03;13.60;99.90
12119;DHT22;6123;48.864;9.200;2022-10-26T07:35:29;13.60;99.90
12119;DHT22;6123;48.864;9.200;2022-10-26T07:37:56;13.60;99.90
12119;DHT22;6123;48.864;9.200;2022-10-26T07:40:22;13.60;99.90
12119;DHT22;6123;48.864;9.200;2022-10-26T07:42:47;13.60;99.90
12119;DHT22;6123;48.864;9.200;2022-10-26T07:45:13;13.70;99.90
12119;DHT22;6123;48.864;9.200;2022-10-26T07:47:39;13.70;99.90
12119;DHT22;6123;48.864;9.200;2022-10-26T07:50:05;13.80;99.90
12119;DHT22;6123;48.864;9.200;2022-10-26T07:52:33;13.90;99.90
12119;DHT22;6123;48.864;9.200;2022-10-26T07:55:00;14.00;99.90
12119;DHT22;6123;48.864;9.200;2022-10-26T07:57:28;14.20;99.90
12119;DHT22;6123;48.864;9.200;2022-10-26T07:59:53;14.20;99.90
12119;DHT22;6123;48.864;9.200;2022-10-26T08:02:19;14.30;99.90
12119;DHT22;6123;48.864;9.200;2022-10-26T08:04:45;14.40;99.90
12119;DHT22;6123;48.864;9.200;2022-10-26T08:07:10;14.60;99.90
12119;DHT22;6123;48.864;9.200;2022-10-26T08:09:36;14.80;99.90
12119;DHT22;6123;48.864;9.200;2022-10-26T08:12:02;14.90;99.90
12119;DHT22;6123;48.864;9.200;2022-10-26T08:14:30;15.10;99.90
12119;DHT22;6123;48.864;9.200;2022-10-26T08:16:56;15.20;99.90
12119;DHT22;6123;48.864;9.200;2022-10-26T08:19:21;15.30;99.90
12119;DHT22;6123;48.864;9.200;2022-10-26T08:21:47;15.30;99.90
12119;DHT22;6123;48.864;9.200;2022-10-26T08:24:15;15.40;99.90
12119;DHT22;6123;48.864;9.200;2022-10-26T08:26:41;15.30;99.90
12119;DHT22;6123;48.864;9.200;2022-10-26T08:29:09;15.30;99.90
12119;DHT22;6123;48.864;9.200;2022-10-26T08:31:34;15.40;99.90
12119;DHT22;6123;48.864;9.200;2022-10-26T08:34:00;15.50;99.90
12119;DHT22;6123;48.864;9.200;2022-10-26T08:36:27;15.60;99.90
12119;DHT22;6123;48.864;9.200;2022-10-26T08:38:53;15.70;99.90
12119;DHT22;6123;48.864;9.200;2022-10-26T08:42:28;15.70;99.90
12119;DHT22;6123;48.864;9.200;2022-10-26T08:44:28;15.80;99.90
12119;DHT22;6123;48.864;9.200;2022-10-26T08:49:40;15.90;99.90
12119;DHT22;6123;48.864;9.200;2022-10-26T08:52:12;15.90;99.90
12119;DHT22;6123;48.864;9.200;2022-10-26T08:54:51;16.00;99.90
12119;DHT22;6123;48.864;9.200;2022-10-26T08:57:36;16.00;99.90
12119;DHT22;6123;48.864;9.200;2022-10-26T09:00:06;16.10;99.90
12119;DHT22;6123;48.864;9.200;2022-10-26T09:02:35;16.20;99.90
12119;DHT22;6123;48.864;9.200;2022-10-26T09:05:01;16.30;99.90
12119;DHT22;6123;48.864;9.200;2022-10-26T09:10:20;16.50;99.90
12119;DHT22;6123;48.864;9.200;2022-10-26T09:26:02;17.10;99.90
12119;DHT22;6123;48.864;9.200;2022-10-26T09:28:35;17.30;99.90
12119;DHT22;6123;48.864;9.200;2022-10-26T09:31:03;17.30;99.90
12119;DHT22;6123;48.864;9.200;2022-10-26T09:33:35;17.40;99.90
12119;DHT22;6123;48.864;9.200;2022-10-26T09:39:09;17.80;99.90
12119;DHT22;6123;48.864;9.200;2022-10-26T09:44:18;18.00;99.90
12119;DHT22;6123;48.864;9.200;2022-10-26T09:49:22;18.40;99.90
12119;DHT22;6123;48.864;9.200;2022-10-26T09:51:55;18.50;99.90
12119;DHT22;6123;48.864;9.200;2022-10-26T09:54:21;18.70;99.90
12119;DHT22;6123;48.864;9.200;2022-10-26T09:56:51;18.90;99.90
12119;DHT22;6123;48.864;9.200;2022-10-26T09:59:21;19.00;99.90
12119;DHT22;6123;48.864;9.200;2022-10-26T10:01:47;19.10;99.90
12119;DHT22;6123;48.864;9.200;2022-10-26T10:06:44;19.10;99.90
12119;DHT22;6123;48.864;9.200;2022-10-26T10:09:14;19.00;99.90
12119;DHT22;6123;48.864;9.200;2022-10-26T10:11:52;18.90;99.90
12119;DHT22;6123;48.864;9.200;2022-10-26T10:14:30;18.80;99.90
12119;DHT22;6123;48.864;9.200;2022-10-26T10:17:02;18.90;99.90
12119;DHT22;6123;48.864;9.200;2022-10-26T10:19:30;18.90;99.90
12119;DHT22;6123;48.864;9.200;2022-10-26T10:24:42;18.90;99.90
12119;DHT22;6123;48.864;9.200;2022-10-26T10:29:51;18.90;99.90
12119;DHT22;6123;48.864;9.200;2022-10-26T10:32:30;19.00;99.90
12119;DHT22;6123;48.864;9.200;2022-10-26T10:34:58;19.10;99.90
12119;DHT22;6123;48.864;9.200;2022-10-26T10:37:34;19.10;99.90
12119;DHT22;6123;48.864;9.200;2022-10-26T10:40:04;19.10;99.90
12119;DHT22;6123;48.864;9.200;2022-10-26T10:42:33;19.10;99.90
12119;DHT22;6123;48.864;9.200;2022-10-26T10:45:00;19.10;99.90
12119;DHT22;6123;48.864;9.200;2022-10-26T10:47:34;19.10;99.90
12119;DHT22;6123;48.864;9.200;2022-10-26T10:50:19;19.10;99.90
12119;DHT22;6123;48.864;9.200;2022-10-26T10:52:47;19.20;99.90
12119;DHT22;6123;48.864;9.200;2022-10-26T11:00:27;20.10;99.90
12119;DHT22;6123;48.864;9.200;2022-10-26T11:06:20;20.20;99.90
12119;DHT22;6123;48.864;9.200;2022-10-26T11:09:03;20.20;99.90
12119;DHT22;6123;48.864;9.200;2022-10-26T11:14:04;20.30;99.90
12119;DHT22;6123;48.864;9.200;2022-10-26T11:16:38;20.70;99.90
12119;DHT22;6123;48.864;9.200;2022-10-26T11:21:40;21.00;99.90
12119;DHT22;6123;48.864;9.200;2022-10-26T11:24:22;21.10;99.90
12119;DHT22;6123;48.864;9.200;2022-10-26T11:27:02;20.80;99.90
12119;DHT22;6123;48.864;9.200;2022-10-26T11:34:48;21.00;99.90
12119;DHT22;6123;48.864;9.200;2022-10-26T11:37:36;21.20;99.90
12119;DHT22;6123;48.864;9.200;2022-10-26T11:52:01;21.00;99.90
12119;DHT22;6123;48.864;9.200;2022-10-26T11:54:34;20.90;99.90
12119;DHT22;6123;48.864;9.200;2022-10-26T11:57:03;20.80;99.90
12119;DHT22;6123;48.864;9.200;2022-10-26T11:59:34;20.70;99.90
12119;DHT22;6123;48.864;9.200;2022-10-26T12:02:13;20.60;99.90
12119;DHT22;6123;48.864;9.200;2022-10-26T12:04:44;21.00;99.90
12119;DHT22;6123;48.864;9.200;2022-10-26T12:07:37;20.90;99.90
12119;DHT22;6123;48.864;9.200;2022-10-26T12:10:18;20.80;99.90
12119;DHT22;6123;48.864;9.200;2022-10-26T12:15:40;20.70;99.90
12119;DHT22;6123;48.864;9.200;2022-10-26T12:18:11;20.80;99.90
12119;DHT22;6123;48.864;9.200;2022-10-26T12:23:10;20.40;99.90
12119;DHT22;6123;48.864;9.200;2022-10-26T12:25:39;20.30;99.90
12119;DHT22;6123;48.864;9.200;2022-10-26T12:28:38;20.50;99.90
12119;DHT22;6123;48.864;9.200;2022-10-26T12:33:57;20.70;99.90
12119;DHT22;6123;48.864;9.200;2022-10-26T12:39:39;20.90;99.90
12119;DHT22;6123;48.864;9.200;2022-10-26T12:45:01;20.80;99.90
12119;DHT22;6123;48.864;9.200;2022-10-26T12:52:50;20.60;99.90
12119;DHT22;6123;48.864;9.200;2022-10-26T13:00:34;20.60;99.90
12119;DHT22;6123;48.864;9.200;2022-10-26T13:03:44;20.60;99.90
12119;DHT22;6123;48.864;9.200;2022-10-26T13:06:29;20.80;99.90
12119;DHT22;6123;48.864;9.200;2022-10-26T13:09:07;20.50;99.90
12119;DHT22;6123;48.864;9.200;2022-10-26T13:11:36;20.70;99.90
12119;DHT22;6123;48.864;9.200;2022-10-26T13:14:23;20.80;99.90
12119;DHT22;6123;48.864;9.200;2022-10-26T13:16:50;21.10;99.90
12119;DHT22;6123;48.864;9.200;2022-10-26T13:19:30;21.10;99.90
12119;DHT22;6123;48.864;9.200;2022-10-26T13:21:59;21.70;99.90
12119;DHT22;6123;48.864;9.200;2022-10-26T13:24:28;22.00;99.90
12119;DHT22;6123;48.864;9.200;2022-10-26T13:29:31;22.20;99.90
12119;DHT22;6123;48.864;9.200;2022-10-26T13:31:59;22.10;99.90
12119;DHT22;6123;48.864;9.200;2022-10-26T13:34:29;21.80;99.90
12119;DHT22;6123;48.864;9.200;2022-10-26T13:37:20;21.50;99.90
12119;DHT22;6123;48.864;9.200;2022-10-26T13:39:51;21.50;99.90
12119;DHT22;6123;48.864;9.200;2022-10-26T13:42:51;21.30;99.90
12119;DHT22;6123;48.864;9.200;2022-10-26T13:48:17;20.70;99.90
12119;DHT22;6123;48.864;9.200;2022-10-26T13:50:54;20.90;99.90
12119;DHT22;6123;48.864;9.200;2022-10-26T13:53:31;20.80;99.90
12119;DHT22;6123;48.864;9.200;2022-10-26T13:58:44;20.90;99.90
12119;DHT22;6123;48.864;9.200;2022-10-26T14:03:36;20.80;99.90
12119;DHT22;6123;48.864;9.200;2022-10-26T14:06:25;20.70;99.90
12119;DHT22;6123;48.864;9.200;2022-10-26T14:08:54;20.70;99.90
12119;DHT22;6123;48.864;9.200;2022-10-26T14:11:31;20.90;99.90
12119;DHT22;6123;48.864;9.200;2022-10-26T14:14:01;20.70;99.90
12119;DHT22;6123;48.864;9.200;2022-10-26T14:16:31;20.70;99.90
12119;DHT22;6123;48.864;9.200;2022-10-26T14:18:57;20.70;99.90
12119;DHT22;6123;48.864;9.200;2022-10-26T14:21:28;20.60;99.90
12119;DHT22;6123;48.864;9.200;2022-10-26T14:23:56;20.60;99.90
12119;DHT22;6123;48.864;9.200;2022-10-26T14:26:37;20.80;99.90
12119;DHT22;6123;48.864;9.200;2022-10-26T14:29:12;20.80;99.90
12119;DHT22;6123;48.864;9.200;2022-10-26T14:31:38;21.00;99.90
12119;DHT22;6123;48.864;9.200;2022-10-26T14:34:04;21.40;99.90
12119;DHT22;6123;48.864;9.200;2022-10-26T14:36:39;21.70;99.90
12119;DHT22;6123;48.864;9.200;2022-10-26T14:41:44;22.50;99.90
12119;DHT22;6123;48.864;9.200;2022-10-26T14:44:29;23.20;99.90
12119;DHT22;6123;48.864;9.200;2022-10-26T14:46:57;23.90;99.90
12119;DHT22;6123;48.864;9.200;2022-10-26T14:49:26;24.00;99.90
12119;DHT22;6123;48.864;9.200;2022-10-26T14:52:03;24.00;99.90
12119;DHT22;6123;48.864;9.200;2022-10-26T14:54:31;24.00;99.90
12119;DHT22;6123;48.864;9.200;2022-10-26T14:56:58;23.70;99.90
12119;DHT22;6123;48.864;9.200;2022-10-26T14:59:32;24.10;99.90
12119;DHT22;6123;48.864;9.200;2022-10-26T15:02:12;23.30;99.90
12119;DHT22;6123;48.864;9.200;2022-10-26T15:04:41;23.90;99.90
12119;DHT22;6123;48.864;9.200;2022-10-26T15:07:20;24.60;99.90
12119;DHT22;6123;48.864;9.200;2022-10-26T15:09:52;25.30;99.90
12119;DHT22;6123;48.864;9.200;2022-10-26T15:12:37;25.60;99.90
12119;DHT22;6123;48.864;9.200;2022-10-26T15:18:02;25.90;99.90
12119;DHT22;6123;48.864;9.200;2022-10-26T15:20:29;25.80;99.90
12119;DHT22;6123;48.864;9.200;2022-10-26T15:22:57;25.30;99.90
12119;DHT22;6123;48.864;9.200;2022-10-26T15:25:27;24.10;99.90
12119;DHT22;6123;48.864;9.200;2022-10-26T15:27:53;23.40;99.90
12119;DHT22;6123;48.864;9.200;2022-10-26T15:30:24;22.90;99.90
12119;DHT22;6123;48.864;9.200;2022-10-26T15:32:52;22.40;99.90
12119;DHT22;6123;48.864;9.200;2022-10-26T15:37:45;21.70;99.90
12119;DHT22;6123;48.864;9.200;2022-10-26T15:40:11;21.70;99.90
12119;DHT22;6123;48.864;9.200;2022-10-26T15:42:38;21.60;99.90
12119;DHT22;6123;48.864;9.200;2022-10-26T15:45:26;21.40;99.90
12119;DHT22;6123;48.864;9.200;2022-10-26T15:47:54;21.10;99.90
12119;DHT22;6123;48.864;9.200;2022-10-26T15:50:26;20.80;99.90
12119;DHT22;6123;48.864;9.200;2022-10-26T15:53:01;20.50;99.90
12119;DHT22;6123;48.864;9.200;2022-10-26T15:55:30;20.40;99.90
12119;DHT22;6123;48.864;9.200;2022-10-26T15:57:56;20.30;99.90
12119;DHT22;6123;48.864;9.200;2022-10-26T16:00:21;20.10;99.90
12119;DHT22;6123;48.864;9.200;2022-10-26T16:02:47;19.90;99.90
12119;DHT22;6123;48.864;9.200;2022-10-26T16:05:14;19.70;99.90
12119;DHT22;6123;48.864;9.200;2022-10-26T16:07:41;19.60;99.90
12119;DHT22;6123;48.864;9.200;2022-10-26T16:10:21;19.60;99.90
12119;DHT22;6123;48.864;9.200;2022-10-26T16:12:48;19.50;99.90
12119;DHT22;6123;48.864;9.200;2022-10-26T16:15:23;19.30;99.90
12119;DHT22;6123;48.864;9.200;2022-10-26T16:17:49;19.40;99.90
12119;DHT22;6123;48.864;9.200;2022-10-26T16:20:18;19.40;99.90
12119;DHT22;6123;48.864;9.200;2022-10-26T16:22:46;19.50;99.90
12119;DHT22;6123;48.864;9.200;2022-10-26T16:25:19;19.50;99.90
12119;DHT22;6123;48.864;9.200;2022-10-26T16:27:45;19.40;99.90
12119;DHT22;6123;48.864;9.200;2022-10-26T16:30:12;19.20;99.90
12119;DHT22;6123;48.864;9.200;2022-10-26T16:32:39;19.10;99.90
12119;DHT22;6123;48.864;9.200;2022-10-26T16:35:08;19.00;99.90
12119;DHT22;6123;48.864;9.200;2022-10-26T16:37:34;18.70;99.90
12119;DHT22;6123;48.864;9.200;2022-10-26T16:39:59;18.50;99.90
12119;DHT22;6123;48.864;9.200;2022-10-26T16:42:25;18.30;99.90
12119;DHT22;6123;48.864;9.200;2022-10-26T16:44:53;18.30;99.90
12119;DHT22;6123;48.864;9.200;2022-10-26T16:47:19;18.20;99.90
12119;DHT22;6123;48.864;9.200;2022-10-26T16:49:47;18.20;99.90
12119;DHT22;6123;48.864;9.200;2022-10-26T16:52:13;18.10;99.90
12119;DHT22;6123;48.864;9.200;2022-10-26T16:54:40;17.90;99.90
12119;DHT22;6123;48.864;9.200;2022-10-26T16:57:08;17.80;99.90
12119;DHT22;6123;48.864;9.200;2022-10-26T16:59:37;17.70;99.90
12119;DHT22;6123;48.864;9.200;2022-10-26T17:02:03;17.70;99.90
12119;DHT22;6123;48.864;9.200;2022-10-26T17:04:31;17.50;99.90
12119;DHT22;6123;48.864;9.200;2022-10-26T17:06:56;17.50;99.90
12119;DHT22;6123;48.864;9.200;2022-10-26T17:09:22;17.60;99.90
12119;DHT22;6123;48.864;9.200;2022-10-26T17:11:47;17.60;99.90
12119;DHT22;6123;48.864;9.200;2022-10-26T17:14:13;17.80;99.90
12119;DHT22;6123;48.864;9.200;2022-10-26T17:16:39;18.00;99.90
12119;DHT22;6123;48.864;9.200;2022-10-26T17:19:04;18.10;99.90
12119;DHT22;6123;48.864;9.200;2022-10-26T17:21:32;18.10;99.90
12119;DHT22;6123;48.864;9.200;2022-10-26T17:23:59;17.90;99.90
12119;DHT22;6123;48.864;9.200;2022-10-26T17:26:27;17.60;99.90
12119;DHT22;6123;48.864;9.200;2022-10-26T17:28:54;17.10;99.90
12119;DHT22;6123;48.864;9.200;2022-10-26T17:31:21;17.00;99.90
12119;DHT22;6123;48.864;9.200;2022-10-26T17:33:49;16.90;99.90
12119;DHT22;6123;48.864;9.200;2022-10-26T17:36:17;16.80;99.90
12119;DHT22;6123;48.864;9.200;2022-10-26T17:38:46;16.70;99.90
12119;DHT22;6123;48.864;9.200;2022-10-26T17:41:14;16.60;99.90
12119;DHT22;6123;48.864;9.200;2022-10-26T17:43:41;16.60;99.90
12119;DHT22;6123;48.864;9.200;2022-10-26T17:46:13;16.60;99.90
12119;DHT22;6123;48.864;9.200;2022-10-26T17:48:39;16.50;99.90
12119;DHT22;6123;48.864;9.200;2022-10-26T17:51:08;16.50;99.90
12119;DHT22;6123;48.864;9.200;2022-10-26T17:53:37;16.60;99.90
12119;DHT22;6123;48.864;9.200;2022-10-26T17:56:04;16.60;99.90
12119;DHT22;6123;48.864;9.200;2022-10-26T17:58:31;16.50;99.90
12119;DHT22;6123;48.864;9.200;2022-10-26T18:01:06;16.50;99.90
12119;DHT22;6123;48.864;9.200;2022-10-26T18:03:37;16.40;99.90
12119;DHT22;6123;48.864;9.200;2022-10-26T18:06:06;16.30;99.90
12119;DHT22;6123;48.864;9.200;2022-10-26T18:08:36;16.20;99.90
12119;DHT22;6123;48.864;9.200;2022-10-26T18:11:03;16.00;99.90
12119;DHT22;6123;48.864;9.200;2022-10-26T18:13:31;15.90;99.90
12119;DHT22;6123;48.864;9.200;2022-10-26T18:16:04;15.90;99.90
12119;DHT22;6123;48.864;9.200;2022-10-26T18:18:31;15.90;99.90
12119;DHT22;6123;48.864;9.200;2022-10-26T18:21:01;15.90;99.90
12119;DHT22;6123;48.864;9.200;2022-10-26T18:23:26;15.80;99.90
12119;DHT22;6123;48.864;9.200;2022-10-26T18:26:03;15.70;99.90
12119;DHT22;6123;48.864;9.200;2022-10-26T18:28:33;15.50;99.90
12119;DHT22;6123;48.864;9.200;2022-10-26T18:31:03;15.60;99.90
12119;DHT22;6123;48.864;9.200;2022-10-26T18:33:29;15.60;99.90
12119;DHT22;6123;48.864;9.200;2022-10-26T18:38:31;15.50;99.90
12119;DHT22;6123;48.864;9.200;2022-10-26T18:40:58;15.40;99.90
12119;DHT22;6123;48.864;9.200;2022-10-26T18:43:24;15.30;99.90
12119;DHT22;6123;48.864;9.200;2022-10-26T18:45:50;15.20;99.90